Linwood, North Carolina
Current Conditions -  °F | °C
As of 12:15 PM on Wednesday 26 Nov 2014 (Local Time) from KEXX Reporting Station
Drizzle Drizzle  
Wind Chill: 38°   Ceiling: 1900
Heat Index: 42°   Visibility: 10mi
Dew Point: 40°   Wind: 6mph
Humidity: 91%   Direction: 310°NW
Pressure: 29.99"   Gusts: NA
Location:  35.75°N, 80.32°W
Report Text: KEXX 261715Z AUTO 31005KT 10SM -DZ SCT008 SCT013 BKN019 06/04 A2999 RMK AO2 T00550042
Loading
Personal Weather Stations






























Interactive Weather Map New forecast layout! Learn more

10-Day Weather Forecast

Advertisements
Track Severe Weather on mobile